Terminal Aerodrome Forecast
Issued by NWS Pittsburgh, PA

Current Version | Previous Version | Graphics & Text | Print | Product List | Glossary Off
Versions: 1 2 3 4 5 6 7 8 9 10 11 12 13 14 15 16 17 18 19 20 21 22 23 24

000
FTUS41 KPBZ 282009 AAA
TAFPIT
TAF AMD
KPIT 282009Z 2820/2924 18005KT P6SM VCSH SCT010 OVC050
      TEMPO 2821/2823 -SHRA
     FM290300 VRB03KT 5SM BR BKN035
     FM290900 00000KT 4SM BR OVC015
     FM291100 32003KT 3SM BR OVC008
     FM291330 33004KT P6SM BKN035=

USA.gov is the U.S. government's official web portal to all federal, state and local government web resources and services.